Airport ID:KJWN
Update Time (UTC):26/01/2021 16:15
Wind Speed (Knots):6
Wind Direction (Magnetic):210
Temperature (°C):14
Dew Point (°C):8
Humidity (%):69
Altimeter (inHg):29.9
Density Altitude (Feet):
Visibility:10+
Clouds (Hundreds of feet):CLR
Present Weather:
METAR:METAR KJWN 261610Z AUTO 20007KT 10SM CLR 14/08 A2989 RMK A01

The data displayed is for advisory purposes only and is not to be used for flight planning or operations.